AirNav   Duncan Aviation - Near you to keep you flying
 
 863 users online  

LL28 SD Aero Airport
Capron, Illinois, USA

GOING TO CAPRON?


FAA INFORMATION EFFECTIVE 01 DECEMBER 2022

Location

FAA Identifier: LL28
Lat/Long: 42-25-58.0000N 088-43-02.0000W
42-25.966667N 088-43.033333W
42.4327778,-88.7172222
(estimated)
Elevation: 930 ft. / 283 m (estimated)
Variation: 02W (2000)
From city: 2 miles NE of CAPRON, IL
Time zone: UTC -6 (UTC -5 during Daylight Saving Time)
Zip code: 60033

Airport Operations

Airport use: Private use. Permission required prior to landing
Activation date: 11/2002
Control tower: no
ARTCC: CHICAGO CENTER
FSS: KANKAKEE FLIGHT SERVICE STATION
Attendance: UNATNDD
Segmented circle: no

Airport Communications

WX AWOS-3 at JVL (18 nm NW): PHONE 608-758-1723

Nearby radio navigation aids

VOR radial/distance  VOR name  Freq  Var
JVLr111/18.7JANESVILLE VOR/DME114.3003E
OBKr292/36.3NORTHBROOK VOR/DME113.0002W
DPAr331/36.4DUPAGE VOR/DME108.4002E

Airport Services

Runway Information

Runway 18/36

Dimensions: 1600 x 70 ft. / 488 x 21 m
Surface: turf, in good condition
RUNWAY 18  RUNWAY 36
Traffic pattern: leftleft
Obstructions: 15 ft. road, 325 ft. from runwaynone

Airport Ownership and Management from official FAA records

Ownership: Privately-owned
Owner: SUSAN DACY
P.O. BOX 182
HARVARD, IL 60033
Phone 815-621-0848
Manager: SUSAN DACY
P.O. BOX 182
HARVARD, IL 60033
Phone 815-621-0848
815-621-0848

Airport Operational Statistics

Aircraft based on the field: 2
Single engine airplanes: 2
    

Additional Remarks

FOR CD CTC CHICAGO ARTCC AT 630-906-8921.

Instrument Procedures

There are no published instrument procedures at LL28.

Some nearby airports with instrument procedures:

C77 - Poplar Grove Airport (8 nm SW)
44C - Beloit Airport (12 nm W)
10C - Galt Field Airport (15 nm E)
C02 - Grand Geneva Resort Airport (18 nm NE)
KJVL - Southern Wisconsin Regional Airport (18 nm NW)
 
Loc | Ops | Rwys | IFR | FBO | Links
Com | Nav | Svcs | Stats | Notes
Area around LL28 (SD Aero Airport)
 
Road maps at: MapQuest Bing Google
 
Aerial photo
No photo
 
Sectional chart

 
Airport distance calculator
Flying to SD Aero Airport? Find the distance to fly.

From to LL28

Sunrise and sunset
Times for 07-Dec-2022
 Local
(UTC-6)
 Zulu
(UTC)
Morning civil twilight06:4012:40
Sunrise07:1213:12
Sunset16:2122:21
Evening civil twilight16:5322:53

Current date and time
Zulu (UTC)  07-Dec-2022 12:25:28
Local (UTC-6)  07-Dec-2022 06:25:28
 
METAR
KJVL 
17nm NW 
071145Z 00000KT 1/4SM FZFG OVC001 M01/M01 A3016
KRFD 
22nm SW 
071154Z 00000KT 6SM BR OVC014 01/M01 A3018 RMK AO2 SLP226 I6000 T00061011 10011 21039 53010
KBUU 
24nm NE 
071155Z AUTO 00000KT 1/4SM OVC002 M01/M01 A3017 RMK AO2 T10131013 10016 21013 PWINO
K57C 
27nm NE 
071155Z AUTO 00000KT 1/2SM FZFG M02/M02 A3016 RMK AO2 T10181018 10002 21018
KDKB 
30nm S 
071155Z AUTO 00000KT 1/2SM FG SCT002 BKN012 OVC018 01/01 A3017 RMK AO2 T00050005 10010 21001
TAF
KJVL 
17nm NW 
071125Z 0712/0812 00000KT 1/4SM FZFG OVC002 FM071500 00000KT 3SM BR OVC011 FM071800 VRB03KT P6SM OVC013 FM072100 33006KT P6SM SCT020 FM080200 02005KT P6SM BKN025 FM080800 VRB03KT 3SM BR FEW009 BKN019
NOTAMs
Click for the latest NOTAMs
NOTAMs are issued by the DoD/FAA and will open in a separate window not controlled by AirNav.

 

 
 

Would you like to see your business listed on this page?

 If your business provides an interesting product or service to pilots, flight crews, aircraft, or users of the SD Aero Airport, you should consider listing it here.  To start the listing process, click on the button below
 
Add a business
 

Other Pages about SD Aero Airport

Update a link
 
Copyright © AirNav, LLC. All rights reserved. Privacy Policy  Contact